logo
Rechercher aéroport 
image banner adimage banner adimage banner ad
image banner ad

FACO - Alkantpan Test Range

Situé à Prieska, South Africa

ICAO - FACO, IATA -

Données fournies par Airmate  

Information générale

Coordonnées: S29°55'60" E22°15'57"
Élévation : 3530 feet MSL.
Variation magnétique : -23° East
Voir autres Aéroports à Northern Cape

Données opérationnelles

Special qualification required
Heure actuelle UTC:
Heure actuelle locale:
Météo à : - ( 0 km )
METAR: KI69 180036Z AUTO 00000KT 10SM CLR 19/18 A2986 RMK AO1 T01930177
Voir NOTAMs / SUP AIP / TFR affectant cet aéroport [VIEW]
Fréquences de communication: [VIEW]

Pistes:

Identifiant RWYQFULongueur (ft)Largeur (ft)SurfaceLDA (ft)
14116°492079GRAV4921
32296°492079GRAV4921

Coordonnées de l'aéroport

Adresse: Prieska South Africa

Vue satellite de FACO